createdAt,value
2018-06-23T00:00:59.617Z,10.35
2018-06-23T00:02:00.202Z,10.24
2018-06-23T00:03:00.737Z,10.31
2018-06-23T00:04:01.282Z,10.24
2018-06-23T00:05:01.828Z,10.22
2018-06-23T00:06:02.377Z,10.24
2018-06-23T00:07:02.923Z,10.20
2018-06-23T00:08:03.468Z,10.19
2018-06-23T00:09:04.016Z,10.20
2018-06-23T00:10:04.561Z,10.19
2018-06-23T00:11:05.108Z,10.16
2018-06-23T00:12:05.651Z,10.19
2018-06-23T00:13:06.204Z,10.20
2018-06-23T00:14:06.750Z,10.22
2018-06-23T00:15:07.291Z,10.20
2018-06-23T00:16:07.841Z,10.16
2018-06-23T00:17:08.386Z,10.19
2018-06-23T00:18:08.935Z,10.20
2018-06-23T00:19:09.481Z,10.14
2018-06-23T00:20:10.033Z,10.17
2018-06-23T00:21:10.578Z,10.20
2018-06-23T00:22:11.120Z,10.12
2018-06-23T00:23:11.662Z,10.16
2018-06-23T00:24:12.212Z,10.09
2018-06-23T00:25:12.756Z,10.17
2018-06-23T00:26:13.296Z,10.17
2018-06-23T00:27:13.837Z,10.01
2018-06-23T00:28:14.383Z,9.99
2018-06-23T00:29:14.925Z,10.05
2018-06-23T00:30:15.475Z,10.01
2018-06-23T00:31:16.023Z,10.05
2018-06-23T00:32:16.568Z,10.09
2018-06-23T00:33:17.113Z,10.04
2018-06-23T00:34:17.664Z,10.04
2018-06-23T00:35:18.204Z,10.05
2018-06-23T00:36:18.750Z,9.95
2018-06-23T00:37:19.299Z,10.02
2018-06-23T00:38:20.063Z,9.96
2018-06-23T00:39:20.611Z,9.90
2018-06-23T00:40:21.149Z,9.96
2018-06-23T00:41:21.694Z,9.95
2018-06-23T00:42:22.239Z,9.95
2018-06-23T00:43:22.789Z,9.96
2018-06-23T00:44:23.336Z,9.95
2018-06-23T00:45:23.880Z,9.86
2018-06-23T00:46:24.427Z,9.90
2018-06-23T00:47:24.977Z,9.88
2018-06-23T00:48:25.518Z,9.94
2018-06-23T00:49:26.064Z,9.90
2018-06-23T00:50:26.616Z,9.84
2018-06-23T00:51:27.158Z,9.88
2018-06-23T00:52:27.704Z,9.87
2018-06-23T00:53:28.249Z,9.81
2018-06-23T00:54:28.790Z,9.86
2018-06-23T00:55:29.337Z,9.84
2018-06-23T00:56:29.879Z,9.91
2018-06-23T00:57:30.426Z,9.90
2018-06-23T00:58:30.975Z,9.91
2018-06-23T00:59:31.516Z,9.87
2018-06-23T01:00:32.063Z,9.88
2018-06-23T01:01:32.606Z,9.84
2018-06-23T01:02:33.153Z,9.83
2018-06-23T01:03:33.707Z,9.81
2018-06-23T01:04:34.249Z,9.84
2018-06-23T01:05:34.797Z,9.84
2018-06-23T01:06:35.340Z,9.80
2018-06-23T01:07:35.887Z,9.76
2018-06-23T01:08:36.433Z,9.76
2018-06-23T01:09:36.978Z,9.74
2018-06-23T01:10:37.526Z,9.76
2018-06-23T01:11:38.077Z,9.69
2018-06-23T01:12:38.630Z,9.65
2018-06-23T01:13:39.175Z,9.66
2018-06-23T01:14:39.717Z,9.62
2018-06-23T01:15:40.261Z,9.63
2018-06-23T01:16:40.807Z,9.63
2018-06-23T01:17:41.351Z,9.65
2018-06-23T01:18:41.893Z,9.62
2018-06-23T01:19:42.436Z,9.74
2018-06-23T01:20:42.978Z,9.74
2018-06-23T01:21:43.522Z,9.65
2018-06-23T01:22:44.067Z,9.65
2018-06-23T01:23:44.648Z,9.63
2018-06-23T01:24:45.169Z,9.74
2018-06-23T01:25:45.704Z,9.63
2018-06-23T01:26:46.252Z,9.63
2018-06-23T01:27:46.795Z,9.61
2018-06-23T01:28:47.342Z,9.62
2018-06-23T01:29:47.889Z,9.58
2018-06-23T01:30:48.434Z,9.59
2018-06-23T01:31:48.978Z,9.54
2018-06-23T01:32:49.528Z,9.54
2018-06-23T01:33:50.063Z,9.59
2018-06-23T01:34:50.609Z,9.65
2018-06-23T01:35:51.191Z,9.59
2018-06-23T01:36:51.692Z,9.59
2018-06-23T01:37:52.240Z,9.54
2018-06-23T01:38:52.785Z,9.53
2018-06-23T01:39:53.330Z,9.48
2018-06-23T01:40:53.878Z,9.61
2018-06-23T01:41:54.423Z,9.44
2018-06-23T01:42:54.964Z,9.48
2018-06-23T01:43:55.505Z,9.45
2018-06-23T01:44:56.049Z,9.47
2018-06-23T01:45:56.593Z,9.58
2018-06-23T01:46:57.154Z,9.47
2018-06-23T01:47:57.681Z,9.41
2018-06-23T01:48:58.224Z,9.41
2018-06-23T01:49:58.766Z,9.36
2018-06-23T01:50:59.310Z,9.36
2018-06-23T01:51:59.854Z,9.38
2018-06-23T01:53:00.398Z,9.40
2018-06-23T01:54:00.963Z,9.50
2018-06-23T01:55:01.481Z,9.47
2018-06-23T01:56:02.027Z,9.44
2018-06-23T01:57:02.572Z,9.33
2018-06-23T01:58:03.116Z,9.44
2018-06-23T01:59:03.655Z,9.41
2018-06-23T02:00:04.202Z,9.33
2018-06-23T02:01:04.748Z,9.33
2018-06-23T02:02:05.296Z,9.41
2018-06-23T02:03:05.845Z,9.40
2018-06-23T02:04:06.593Z,9.40
2018-06-23T02:05:07.137Z,9.29
2018-06-23T02:06:07.683Z,9.28
2018-06-23T02:07:08.226Z,9.35
2018-06-23T02:08:08.776Z,9.33
2018-06-23T02:09:09.315Z,9.19
2018-06-23T02:10:09.860Z,9.23
2018-06-23T02:11:10.401Z,9.26
2018-06-23T02:12:10.953Z,9.26
2018-06-23T02:13:11.496Z,9.25
2018-06-23T02:14:12.044Z,9.29
2018-06-23T02:15:12.590Z,9.26
2018-06-23T02:16:13.132Z,9.23
2018-06-23T02:17:13.683Z,9.26
2018-06-23T02:18:14.230Z,9.23
2018-06-23T02:19:14.770Z,9.20
2018-06-23T02:20:15.312Z,9.20
2018-06-23T02:21:15.852Z,9.11
2018-06-23T02:22:16.399Z,9.15
2018-06-23T02:23:16.942Z,9.23
2018-06-23T02:24:17.483Z,9.19
2018-06-23T02:25:18.031Z,9.11
2018-06-23T02:26:18.578Z,9.17
2018-06-23T02:27:19.115Z,9.11
2018-06-23T02:28:19.657Z,9.06
2018-06-23T02:29:20.207Z,9.06
2018-06-23T02:30:20.747Z,8.98
2018-06-23T02:31:21.284Z,9.01
2018-06-23T02:32:21.826Z,9.01
2018-06-23T02:33:22.376Z,9.04
2018-06-23T02:34:22.915Z,9.06
2018-06-23T02:35:23.493Z,9.06
2018-06-23T02:36:24.011Z,8.91
2018-06-23T02:37:24.561Z,8.98
2018-06-23T02:38:25.105Z,8.95
2018-06-23T02:39:25.650Z,9.00
2018-06-23T02:40:26.192Z,8.96
2018-06-23T02:41:26.735Z,8.98
2018-06-23T02:42:27.273Z,8.96
2018-06-23T02:43:27.820Z,9.00
2018-06-23T02:44:28.369Z,8.93
2018-06-23T02:45:28.914Z,8.91
2018-06-23T02:46:29.450Z,8.95
2018-06-23T02:47:29.995Z,8.89
2018-06-23T02:48:30.536Z,8.95
2018-06-23T02:49:31.079Z,8.98
2018-06-23T02:50:31.624Z,8.96
2018-06-23T02:51:32.170Z,8.88
2018-06-23T02:52:32.720Z,8.95
2018-06-23T02:53:33.267Z,8.82
2018-06-23T02:54:33.817Z,8.78
2018-06-23T02:55:34.356Z,8.82
2018-06-23T02:56:34.895Z,8.81
2018-06-23T02:57:35.441Z,8.81
2018-06-23T02:58:35.981Z,8.81
2018-06-23T02:59:36.524Z,8.82
2018-06-23T03:00:37.066Z,8.78
2018-06-23T03:01:37.607Z,8.78
2018-06-23T03:02:38.155Z,8.82
2018-06-23T03:03:38.695Z,8.84
2018-06-23T03:04:39.243Z,8.82
2018-06-23T03:05:39.792Z,8.82
2018-06-23T03:06:40.335Z,8.74
2018-06-23T03:07:40.883Z,8.81
2018-06-23T03:08:41.432Z,8.76
2018-06-23T03:09:41.974Z,8.73
2018-06-23T03:10:42.574Z,8.73
2018-06-23T03:11:43.065Z,8.66
2018-06-23T03:12:43.613Z,8.71
2018-06-23T03:13:44.158Z,8.66
2018-06-23T03:14:44.707Z,8.67
2018-06-23T03:15:45.252Z,8.63
2018-06-23T03:16:45.806Z,8.67
2018-06-23T03:17:46.350Z,8.58
2018-06-23T03:18:46.902Z,8.60
2018-06-23T03:19:47.449Z,8.60
2018-06-23T03:20:47.993Z,8.60
2018-06-23T03:21:48.542Z,8.64
2018-06-23T03:22:49.089Z,8.67
2018-06-23T03:23:49.637Z,8.56
2018-06-23T03:24:50.187Z,8.56
2018-06-23T03:25:50.736Z,8.58
2018-06-23T03:26:51.284Z,8.56
2018-06-23T03:27:51.831Z,8.59
2018-06-23T03:28:52.385Z,8.58
2018-06-23T03:29:52.926Z,8.56
2018-06-23T03:30:53.480Z,8.60
2018-06-23T03:31:54.021Z,8.60
2018-06-23T03:32:54.570Z,8.60
2018-06-23T03:33:55.118Z,8.67
2018-06-23T03:34:55.654Z,8.60
2018-06-23T03:35:56.204Z,8.66
2018-06-23T03:36:56.750Z,8.60
2018-06-23T03:37:57.294Z,8.66
2018-06-23T03:38:57.847Z,8.64
2018-06-23T03:39:58.401Z,8.70
2018-06-23T03:40:58.948Z,8.70
2018-06-23T03:41:59.500Z,8.67
2018-06-23T03:43:00.046Z,8.64
2018-06-23T03:44:00.596Z,8.66
2018-06-23T03:45:01.138Z,8.68
2018-06-23T03:46:01.684Z,8.73
2018-06-23T03:47:02.228Z,8.81
2018-06-23T03:48:02.785Z,8.77
2018-06-23T03:49:03.329Z,8.85
2018-06-23T03:50:03.879Z,8.76
2018-06-23T03:51:04.482Z,8.74
2018-06-23T03:52:05.033Z,8.81
2018-06-23T03:53:05.596Z,8.82
2018-06-23T03:54:06.135Z,8.84
2018-06-23T03:55:06.687Z,8.77
2018-06-23T03:56:07.236Z,8.85
2018-06-23T03:57:07.786Z,8.84
2018-06-23T03:58:08.333Z,8.81
2018-06-23T03:59:08.883Z,8.76
2018-06-23T04:00:09.434Z,8.85
2018-06-23T04:01:09.984Z,8.85
2018-06-23T04:02:10.536Z,8.89
2018-06-23T04:03:11.083Z,8.89
2018-06-23T04:04:11.637Z,8.93
2018-06-23T04:05:12.185Z,9.01
2018-06-23T04:06:12.730Z,8.92
2018-06-23T04:07:13.332Z,8.95
2018-06-23T04:08:13.828Z,9.00
2018-06-23T04:09:14.378Z,8.95
2018-06-23T04:10:14.922Z,8.96
2018-06-23T04:11:15.474Z,9.00
2018-06-23T04:12:16.020Z,9.04
2018-06-23T04:13:16.571Z,9.04
2018-06-23T04:14:17.120Z,9.06
2018-06-23T04:15:17.672Z,9.15
2018-06-23T04:16:18.220Z,9.14
2018-06-23T04:17:18.773Z,9.19
2018-06-23T04:18:19.323Z,9.14
2018-06-23T04:19:19.873Z,9.20
2018-06-23T04:20:20.424Z,9.19
2018-06-23T04:21:20.980Z,9.25
2018-06-23T04:22:21.525Z,9.32
2018-06-23T04:23:22.079Z,9.32
2018-06-23T04:24:22.630Z,9.43
2018-06-23T04:25:23.177Z,9.56
2018-06-23T04:26:23.729Z,9.63
2018-06-23T04:27:24.283Z,9.74
2018-06-23T04:28:24.834Z,9.65
2018-06-23T04:29:25.385Z,9.72
2018-06-23T04:30:25.933Z,9.68
2018-06-23T04:31:26.486Z,9.76
2018-06-23T04:32:27.039Z,9.79
2018-06-23T04:33:27.589Z,9.88
2018-06-23T04:34:28.141Z,9.87
2018-06-23T04:35:28.695Z,9.80
2018-06-23T04:36:29.246Z,9.95
2018-06-23T04:37:29.792Z,10.04
2018-06-23T04:38:30.345Z,10.20
2018-06-23T04:39:30.897Z,10.22
2018-06-23T04:40:31.452Z,10.31
2018-06-23T04:41:32.005Z,10.32
2018-06-23T04:42:32.556Z,10.41
2018-06-23T04:43:33.114Z,10.47
2018-06-23T04:44:33.669Z,10.54
2018-06-23T04:45:34.217Z,10.57
2018-06-23T04:46:34.769Z,10.63
2018-06-23T04:47:35.322Z,10.61
2018-06-23T04:48:35.869Z,10.69
2018-06-23T04:49:36.418Z,10.78
2018-06-23T04:50:36.973Z,10.76
2018-06-23T04:51:37.522Z,10.82
2018-06-23T04:52:38.077Z,10.85
2018-06-23T04:53:38.632Z,10.90
2018-06-23T04:54:39.191Z,10.94
2018-06-23T04:55:39.755Z,11.08
2018-06-23T04:56:40.305Z,11.27
2018-06-23T04:57:40.855Z,11.59
2018-06-23T04:58:41.411Z,12.21
2018-06-23T04:59:41.965Z,12.87
2018-06-23T05:00:42.522Z,13.16
2018-06-23T05:01:43.077Z,13.39
2018-06-23T05:02:43.641Z,13.74
2018-06-23T05:03:44.194Z,14.07
2018-06-23T05:04:44.746Z,13.99
2018-06-23T05:05:45.308Z,13.72
2018-06-23T05:06:45.859Z,13.79
2018-06-23T05:07:46.421Z,14.07
2018-06-23T05:08:46.983Z,14.15
2018-06-23T05:09:47.540Z,14.62
2018-06-23T05:10:48.106Z,14.85
2018-06-23T05:11:48.668Z,15.06
2018-06-23T05:12:49.225Z,15.07
2018-06-23T05:13:49.785Z,15.10
2018-06-23T05:14:50.345Z,15.17
2018-06-23T05:15:50.901Z,14.52
2018-06-23T05:16:51.450Z,14.10
2018-06-23T05:17:52.005Z,14.03
2018-06-23T05:18:52.564Z,13.84
2018-06-23T05:19:53.127Z,13.78
2018-06-23T05:20:53.689Z,13.90
2018-06-23T05:21:54.247Z,13.77
2018-06-23T05:22:54.802Z,13.75
2018-06-23T05:23:55.359Z,13.68
2018-06-23T05:24:55.920Z,13.90
2018-06-23T05:25:56.523Z,14.25
2018-06-23T05:26:57.037Z,14.72
2018-06-23T05:27:57.593Z,15.13
2018-06-23T05:28:58.162Z,15.59
2018-06-23T05:29:58.723Z,15.98
2018-06-23T05:30:59.283Z,16.04
2018-06-23T05:31:59.845Z,16.04
2018-06-23T05:33:00.406Z,15.69
2018-06-23T05:34:00.969Z,15.67
2018-06-23T05:35:01.534Z,15.80
2018-06-23T05:36:02.120Z,16.15
2018-06-23T05:37:02.665Z,16.43
2018-06-23T05:38:03.238Z,16.17
2018-06-23T05:39:03.799Z,15.95
2018-06-23T05:40:04.362Z,15.83
2018-06-23T05:41:04.922Z,15.61
2018-06-23T05:42:05.479Z,15.42
2018-06-23T05:43:06.043Z,15.21
2018-06-23T05:44:06.614Z,14.99
2018-06-23T05:45:07.168Z,14.84
2018-06-23T05:46:07.727Z,14.58
2018-06-23T05:47:08.289Z,14.44
2018-06-23T05:48:08.845Z,14.30
2018-06-23T05:49:09.405Z,14.33
2018-06-23T05:50:09.962Z,14.14
2018-06-23T05:51:10.567Z,14.15
2018-06-23T05:52:11.070Z,14.03
2018-06-23T05:53:11.632Z,14.00
2018-06-23T05:54:12.186Z,13.97
2018-06-23T05:55:12.746Z,13.96
2018-06-23T05:56:13.305Z,13.86
2018-06-23T05:57:13.864Z,13.92
2018-06-23T05:58:14.418Z,13.84
2018-06-23T05:59:14.982Z,13.75
2018-06-23T06:00:15.533Z,13.71
2018-06-23T06:01:16.093Z,13.61
2018-06-23T06:02:16.652Z,13.44
2018-06-23T06:03:17.204Z,13.41
2018-06-23T06:04:17.756Z,13.31
2018-06-23T06:05:18.313Z,13.20
2018-06-23T06:06:18.861Z,13.19
2018-06-23T06:07:19.429Z,13.18
2018-06-23T06:08:19.974Z,13.02
2018-06-23T06:09:20.530Z,13.04
2018-06-23T06:10:21.087Z,13.07
2018-06-23T06:11:21.649Z,13.05
2018-06-23T06:12:22.205Z,13.00
2018-06-23T06:13:22.754Z,13.02
2018-06-23T06:14:23.305Z,12.93
2018-06-23T06:15:23.862Z,12.86
2018-06-23T06:16:24.415Z,12.85
2018-06-23T06:17:24.971Z,12.79
2018-06-23T06:18:25.519Z,12.82
2018-06-23T06:19:26.075Z,12.85
2018-06-23T06:20:26.632Z,12.90
2018-06-23T06:21:27.192Z,12.95
2018-06-23T06:22:27.746Z,12.89
2018-06-23T06:23:28.301Z,13.00
2018-06-23T06:24:28.855Z,12.98
2018-06-23T06:25:29.402Z,12.97
2018-06-23T06:26:29.956Z,13.10
2018-06-23T06:27:30.517Z,13.05
2018-06-23T06:28:31.061Z,13.01
2018-06-23T06:29:31.620Z,13.08
2018-06-23T06:30:32.172Z,13.27
2018-06-23T06:31:32.728Z,13.36
2018-06-23T06:32:33.287Z,13.35
2018-06-23T06:33:33.838Z,13.39
2018-06-23T06:34:34.398Z,13.36
2018-06-23T06:35:34.986Z,13.23
2018-06-23T06:36:35.507Z,13.22
2018-06-23T06:37:36.062Z,13.22
2018-06-23T06:38:36.619Z,13.33
2018-06-23T06:39:37.172Z,13.22
2018-06-23T06:40:37.726Z,13.23
2018-06-23T06:41:38.284Z,13.22
2018-06-23T06:42:38.834Z,13.33
2018-06-23T06:43:39.394Z,13.27
2018-06-23T06:44:39.952Z,13.31
2018-06-23T06:45:40.509Z,13.38
2018-06-23T06:46:41.066Z,13.45
2018-06-23T06:47:41.624Z,13.49
2018-06-23T06:48:42.175Z,13.61
2018-06-23T06:49:42.734Z,13.71
2018-06-23T06:50:43.300Z,13.72
2018-06-23T06:51:43.852Z,13.61
2018-06-23T06:52:44.403Z,13.74
2018-06-23T06:53:44.958Z,13.77
2018-06-23T06:54:45.517Z,13.90
2018-06-23T06:55:46.070Z,13.75
2018-06-23T06:56:46.627Z,13.72
2018-06-23T06:57:47.181Z,13.84
2018-06-23T06:58:47.738Z,13.79
2018-06-23T06:59:48.296Z,13.60
2018-06-23T07:00:48.847Z,13.44
2018-06-23T07:01:49.408Z,13.42
2018-06-23T07:02:49.963Z,13.41
2018-06-23T07:03:50.521Z,13.31
2018-06-23T07:04:51.074Z,13.33
2018-06-23T07:05:51.630Z,13.38
2018-06-23T07:06:52.187Z,13.42
2018-06-23T07:07:52.744Z,13.46
2018-06-23T07:08:53.311Z,13.57
2018-06-23T07:09:53.866Z,13.57
2018-06-23T07:10:54.418Z,13.74
2018-06-23T07:11:54.975Z,13.72
2018-06-23T07:12:55.529Z,13.75
2018-06-23T07:13:56.090Z,13.74
2018-06-23T07:14:56.646Z,13.74
2018-06-23T07:15:57.204Z,13.72
2018-06-23T07:16:57.759Z,13.60
2018-06-23T07:17:58.315Z,13.72
2018-06-23T07:18:58.873Z,13.75
2018-06-23T07:19:59.428Z,13.74
2018-06-23T07:20:59.981Z,13.81
2018-06-23T07:22:00.539Z,13.96
2018-06-23T07:23:01.095Z,14.00
2018-06-23T07:24:01.786Z,14.12
2018-06-23T07:25:02.217Z,14.35
2018-06-23T07:26:02.774Z,14.43
2018-06-23T07:27:03.332Z,14.52
2018-06-23T07:28:03.888Z,14.65
2018-06-23T07:29:04.441Z,14.72
2018-06-23T07:30:04.997Z,14.86
2018-06-23T07:31:05.675Z,14.99
2018-06-23T07:32:06.233Z,14.84
2018-06-23T07:33:06.800Z,14.58
2018-06-23T07:34:07.359Z,14.66
2018-06-23T07:35:07.971Z,14.73
2018-06-23T07:36:08.467Z,14.82
2018-06-23T07:37:09.027Z,14.84
2018-06-23T07:38:09.583Z,14.89
2018-06-23T07:39:10.149Z,14.89
2018-06-23T07:40:10.703Z,14.92
2018-06-23T07:41:11.263Z,15.07
2018-06-23T07:42:11.815Z,14.92
2018-06-23T07:43:12.373Z,14.94
2018-06-23T07:44:12.933Z,14.91
2018-06-23T07:45:13.491Z,15.00
2018-06-23T07:46:14.164Z,15.09
2018-06-23T07:47:14.739Z,15.06
2018-06-23T07:48:15.281Z,15.04
2018-06-23T07:49:15.844Z,14.89
2018-06-23T07:50:16.518Z,14.88
2018-06-23T07:51:17.100Z,14.92
2018-06-23T07:52:17.633Z,14.82
2018-06-23T07:53:18.189Z,14.85
2018-06-23T07:54:18.743Z,14.81
2018-06-23T07:55:19.310Z,14.72
2018-06-23T07:56:19.987Z,14.82
2018-06-23T07:57:20.412Z,14.82
2018-06-23T07:58:20.970Z,14.82
2018-06-23T07:59:21.534Z,15.03
2018-06-23T08:00:22.093Z,15.04
2018-06-23T08:01:22.654Z,15.07
2018-06-23T08:02:23.211Z,15.17
2018-06-23T08:03:23.767Z,15.18
2018-06-23T08:04:24.325Z,15.29
2018-06-23T08:05:24.879Z,15.36
2018-06-23T08:06:25.440Z,15.44
2018-06-23T08:07:25.989Z,15.44
2018-06-23T08:08:26.548Z,15.28
2018-06-23T08:09:27.104Z,15.25
2018-06-23T08:10:27.664Z,15.22
2018-06-23T08:11:28.222Z,15.28
2018-06-23T08:12:28.773Z,15.01
2018-06-23T08:13:29.330Z,14.99
2018-06-23T08:14:29.897Z,14.96
2018-06-23T08:15:30.449Z,14.82
2018-06-23T08:16:31.005Z,14.65
2018-06-23T08:17:31.556Z,14.66
2018-06-23T08:18:32.162Z,14.72
2018-06-23T08:19:32.658Z,14.84
2018-06-23T08:20:33.215Z,14.91
2018-06-23T08:21:33.773Z,15.01
2018-06-23T08:22:34.331Z,14.86
2018-06-23T08:23:34.883Z,14.85
2018-06-23T08:24:35.441Z,14.86
2018-06-23T08:25:36.201Z,15.03
2018-06-23T08:26:36.838Z,14.96
2018-06-23T08:27:37.311Z,14.92
2018-06-23T08:28:37.865Z,15.03
2018-06-23T08:29:38.422Z,15.10
2018-06-23T08:30:38.982Z,15.17
2018-06-23T08:31:39.541Z,15.17
2018-06-23T08:32:40.091Z,15.28
2018-06-23T08:33:40.648Z,15.28
2018-06-23T08:34:41.205Z,15.31
2018-06-23T08:35:41.770Z,15.50
2018-06-23T08:36:42.344Z,15.55
2018-06-23T08:37:42.953Z,15.64
2018-06-23T08:38:43.448Z,15.84
2018-06-23T08:39:44.008Z,15.95
2018-06-23T08:40:44.569Z,16.17
2018-06-23T08:41:45.121Z,16.23
2018-06-23T08:42:45.686Z,16.29
2018-06-23T08:43:46.271Z,16.42
2018-06-23T08:44:46.814Z,16.53
2018-06-23T08:45:47.371Z,16.97
2018-06-23T08:46:47.931Z,16.98
2018-06-23T08:47:48.498Z,17.15
2018-06-23T08:48:49.053Z,17.29
2018-06-23T08:49:49.612Z,17.39
2018-06-23T08:50:50.172Z,17.46
2018-06-23T08:51:50.736Z,17.68
2018-06-23T08:52:51.293Z,17.83
2018-06-23T08:53:51.856Z,17.90
2018-06-23T08:54:52.416Z,18.03
2018-06-23T08:55:52.977Z,18.14
2018-06-23T08:56:53.550Z,18.23
2018-06-23T08:57:54.106Z,18.20
2018-06-23T08:58:54.674Z,18.22
2018-06-23T08:59:55.234Z,18.34
2018-06-23T09:00:55.799Z,18.40
2018-06-23T09:01:56.358Z,18.26
2018-06-23T09:02:56.915Z,18.11
2018-06-23T09:03:57.477Z,18.10
2018-06-23T09:04:58.040Z,18.20
2018-06-23T09:05:58.606Z,18.35
2018-06-23T09:06:59.167Z,18.47
2018-06-23T09:07:59.723Z,18.40
2018-06-23T09:09:00.287Z,18.38
2018-06-23T09:10:00.847Z,18.55
2018-06-23T09:11:01.405Z,18.63
2018-06-23T09:12:01.975Z,18.99
2018-06-23T09:13:02.533Z,19.09
2018-06-23T09:14:03.098Z,19.47
2018-06-23T09:15:03.661Z,19.55
2018-06-23T09:16:04.235Z,19.14
2018-06-23T09:17:04.799Z,19.36
2018-06-23T09:18:05.361Z,19.48
2018-06-23T09:19:05.934Z,19.77
2018-06-23T09:20:06.498Z,20.03
2018-06-23T09:21:07.061Z,20.35
2018-06-23T09:22:07.627Z,20.10
2018-06-23T09:23:08.192Z,19.98
2018-06-23T09:24:08.759Z,19.99
2018-06-23T09:25:09.331Z,20.13
2018-06-23T09:26:09.900Z,20.48
2018-06-23T09:27:10.458Z,20.91
2018-06-23T09:28:11.023Z,20.99
2018-06-23T09:29:11.588Z,20.66
2018-06-23T09:30:12.153Z,20.31
2018-06-23T09:31:12.719Z,20.21
2018-06-23T09:32:13.283Z,20.28
2018-06-23T09:33:13.851Z,20.09
2018-06-23T09:34:14.414Z,19.74
2018-06-23T09:35:14.972Z,19.61
2018-06-23T09:36:15.536Z,19.47
2018-06-23T09:37:16.106Z,19.29
2018-06-23T09:38:16.677Z,19.14
2018-06-23T09:39:17.235Z,19.18
2018-06-23T09:40:17.797Z,19.09
2018-06-23T09:41:18.362Z,19.04
2018-06-23T09:42:18.922Z,18.93
2018-06-23T09:43:19.483Z,18.96
2018-06-23T09:44:20.046Z,18.55
2018-06-23T09:45:20.614Z,18.95
2018-06-23T09:46:21.182Z,19.27
2018-06-23T09:47:21.746Z,19.71
2018-06-23T09:48:22.303Z,19.95
2018-06-23T09:49:22.878Z,20.28
2018-06-23T09:50:23.433Z,20.36
2018-06-23T09:51:23.999Z,20.02
2018-06-23T09:52:24.562Z,20.03
2018-06-23T09:53:25.121Z,20.10
2018-06-23T09:54:25.688Z,20.10
2018-06-23T09:55:26.246Z,20.26
2018-06-23T09:56:26.814Z,20.29
2018-06-23T09:57:27.383Z,20.28
2018-06-23T09:58:27.950Z,19.96
2018-06-23T09:59:28.502Z,19.94
2018-06-23T10:00:29.063Z,19.85
2018-06-23T10:01:29.635Z,19.91
2018-06-23T10:02:30.192Z,19.95
2018-06-23T10:03:30.755Z,19.85
2018-06-23T10:04:31.319Z,19.47
2018-06-23T10:05:31.882Z,19.39
2018-06-23T10:06:32.447Z,19.55
2018-06-23T10:07:33.014Z,19.44
2018-06-23T10:08:33.620Z,19.25
2018-06-23T10:09:34.135Z,19.22
2018-06-23T10:10:34.696Z,19.41
2018-06-23T10:11:35.258Z,19.33
2018-06-23T10:12:35.818Z,19.37
2018-06-23T10:13:36.376Z,19.36
2018-06-23T10:14:36.931Z,19.29
2018-06-23T10:15:37.495Z,19.18
2018-06-23T10:16:38.054Z,19.12
2018-06-23T10:17:38.613Z,18.98
2018-06-23T10:18:39.171Z,18.71
2018-06-23T10:19:39.739Z,18.59
2018-06-23T10:20:40.287Z,18.55
2018-06-23T10:21:40.842Z,18.50
2018-06-23T10:22:41.404Z,18.35
2018-06-23T10:23:41.965Z,18.25
2018-06-23T10:24:42.526Z,18.10
2018-06-23T10:25:43.086Z,17.83
2018-06-23T10:26:43.647Z,17.85
2018-06-23T10:27:44.206Z,17.87
2018-06-23T10:28:44.764Z,17.83
2018-06-23T10:29:45.322Z,17.83
2018-06-23T10:30:45.890Z,17.77
2018-06-23T10:31:46.440Z,17.82
2018-06-23T10:32:46.998Z,17.86
2018-06-23T10:33:47.565Z,17.72
2018-06-23T10:34:48.127Z,17.77
2018-06-23T10:35:48.683Z,17.85
2018-06-23T10:36:50.235Z,17.68
2018-06-23T10:37:50.800Z,17.82
2018-06-23T10:38:51.356Z,17.83
2018-06-23T10:39:51.917Z,17.80
2018-06-23T10:40:52.477Z,17.83
2018-06-23T10:41:53.034Z,17.79
2018-06-23T10:42:53.593Z,17.79
2018-06-23T10:43:54.151Z,17.75
2018-06-23T10:44:54.711Z,17.67
2018-06-23T10:45:55.268Z,17.48
2018-06-23T10:46:55.827Z,17.46
2018-06-23T10:47:56.384Z,17.51
2018-06-23T10:48:56.944Z,17.49
2018-06-23T10:49:57.505Z,17.41
2018-06-23T10:50:58.064Z,17.34
2018-06-23T10:51:58.624Z,17.51
2018-06-23T10:52:59.187Z,17.51
2018-06-23T10:53:59.744Z,17.54
2018-06-23T10:55:00.308Z,17.63
2018-06-23T10:56:00.867Z,17.80
2018-06-23T10:57:01.427Z,17.80
2018-06-23T10:58:01.985Z,17.87
2018-06-23T10:59:02.545Z,17.87
2018-06-23T11:00:03.105Z,17.82
2018-06-23T11:01:03.665Z,17.85
2018-06-23T11:02:04.218Z,17.80
2018-06-23T11:03:04.779Z,18.00
2018-06-23T11:04:05.340Z,18.00
2018-06-23T11:05:05.904Z,17.95
2018-06-23T11:06:06.459Z,18.10
2018-06-23T11:07:07.017Z,18.10
2018-06-23T11:08:07.573Z,17.98
2018-06-23T11:09:08.135Z,18.00
2018-06-23T11:10:08.696Z,17.87
2018-06-23T11:11:09.260Z,17.79
2018-06-23T11:12:09.817Z,17.85
2018-06-23T11:13:10.370Z,17.74
2018-06-23T11:14:10.928Z,17.71
2018-06-23T11:15:11.488Z,17.59
2018-06-23T11:16:12.041Z,17.63
2018-06-23T11:17:12.594Z,17.59
2018-06-23T11:18:13.147Z,17.48
2018-06-23T11:19:13.703Z,17.45
2018-06-23T11:20:14.272Z,17.39
2018-06-23T11:21:14.825Z,17.36
2018-06-23T11:22:15.388Z,17.34
2018-06-23T11:23:15.945Z,17.29
2018-06-23T11:24:16.552Z,17.37
2018-06-23T11:25:17.049Z,17.45
2018-06-23T11:26:17.610Z,17.42
2018-06-23T11:27:18.162Z,17.39
2018-06-23T11:28:18.729Z,17.37
2018-06-23T11:29:19.281Z,17.51
2018-06-23T11:30:19.846Z,17.60
2018-06-23T11:31:20.404Z,17.67
2018-06-23T11:32:20.963Z,17.59
2018-06-23T11:33:21.524Z,17.71
2018-06-23T11:34:22.084Z,17.83
2018-06-23T11:35:22.644Z,17.85
2018-06-23T11:36:23.209Z,17.95
2018-06-23T11:37:23.764Z,17.98
2018-06-23T11:38:24.338Z,18.11
2018-06-23T11:39:24.881Z,18.08
2018-06-23T11:40:25.441Z,18.12
2018-06-23T11:41:26.003Z,18.14
2018-06-23T11:42:26.555Z,18.16
2018-06-23T11:43:27.115Z,18.14
2018-06-23T11:44:27.678Z,18.19
2018-06-23T11:45:28.249Z,18.16
2018-06-23T11:46:28.801Z,18.08
2018-06-23T11:47:29.359Z,17.98
2018-06-23T11:48:29.928Z,18.03
2018-06-23T11:49:30.493Z,17.92
2018-06-23T11:50:31.046Z,17.75
2018-06-23T11:51:31.603Z,17.87
2018-06-23T11:52:32.209Z,17.79
2018-06-23T11:53:32.735Z,17.83
2018-06-23T11:54:33.277Z,17.89
2018-06-23T11:55:33.838Z,17.79
2018-06-23T11:56:34.397Z,17.72
2018-06-23T11:57:34.957Z,17.56
2018-06-23T11:58:35.537Z,17.48
2018-06-23T11:59:36.126Z,17.46
2018-06-23T12:00:36.689Z,17.63
2018-06-23T12:01:37.251Z,17.74
2018-06-23T12:02:37.808Z,17.86
2018-06-23T12:03:38.369Z,18.01
2018-06-23T12:04:38.923Z,18.10
2018-06-23T12:05:39.481Z,18.20
2018-06-23T12:06:40.035Z,18.32
2018-06-23T12:07:40.637Z,18.58
2018-06-23T12:08:41.177Z,18.63
2018-06-23T12:09:41.731Z,18.78
2018-06-23T12:10:42.302Z,18.81
2018-06-23T12:11:42.859Z,18.99
2018-06-23T12:12:43.424Z,18.96
2018-06-23T12:13:43.986Z,18.95
2018-06-23T12:14:44.551Z,18.84
2018-06-23T12:15:45.106Z,18.69
2018-06-23T12:16:45.677Z,18.65
2018-06-23T12:17:46.253Z,18.60
2018-06-23T12:18:46.815Z,18.75
2018-06-23T12:19:47.372Z,18.80
2018-06-23T12:20:47.933Z,18.92
2018-06-23T12:21:48.494Z,19.06
2018-06-23T12:22:49.056Z,19.29
2018-06-23T12:23:49.614Z,19.30
2018-06-23T12:24:50.170Z,19.34
2018-06-23T12:25:50.726Z,19.33
2018-06-23T12:26:51.312Z,19.49
2018-06-23T12:27:51.855Z,19.33
2018-06-23T12:28:52.410Z,19.27
2018-06-23T12:29:52.973Z,19.29
2018-06-23T12:30:53.533Z,19.22
2018-06-23T12:31:54.100Z,19.16
2018-06-23T12:32:54.669Z,19.15
2018-06-23T12:33:55.230Z,19.30
2018-06-23T12:34:55.793Z,19.29
2018-06-23T12:35:56.351Z,19.36
2018-06-23T12:36:56.910Z,19.49
2018-06-23T12:37:57.466Z,19.55
2018-06-23T12:38:58.028Z,19.70
2018-06-23T12:39:58.588Z,19.74
2018-06-23T12:40:59.147Z,19.73
2018-06-23T12:41:59.933Z,19.71
2018-06-23T12:43:00.490Z,19.87
2018-06-23T12:44:01.053Z,19.77
2018-06-23T12:45:01.609Z,19.66
2018-06-23T12:46:02.175Z,19.64
2018-06-23T12:47:02.738Z,19.61
2018-06-23T12:48:03.300Z,19.71
2018-06-23T12:49:03.857Z,19.69
2018-06-23T12:50:04.422Z,19.56
2018-06-23T12:51:04.984Z,19.34
2018-06-23T12:52:05.548Z,19.25
2018-06-23T12:53:06.101Z,19.11
2018-06-23T12:54:06.656Z,19.12
2018-06-23T12:55:07.217Z,19.14
2018-06-23T12:56:07.782Z,19.09
2018-06-23T12:57:08.344Z,19.18
2018-06-23T12:58:08.903Z,19.18
2018-06-23T12:59:09.466Z,19.29
2018-06-23T13:00:10.032Z,19.39
2018-06-23T13:01:10.606Z,19.49
2018-06-23T13:02:11.160Z,19.56
2018-06-23T13:03:11.722Z,19.59
2018-06-23T13:04:12.280Z,19.77
2018-06-23T13:05:12.848Z,19.74
2018-06-23T13:06:13.399Z,19.73
2018-06-23T13:07:13.965Z,19.58
2018-06-23T13:08:14.524Z,19.49